Glenrock, WY (82637)

6:10 PM MST on February 01, 2015 (GMT -0700)
WYDOT Deer Creek I-25 east of Casper | Change Station
CLOSE
Current Station
Personal Weather Station
Location: Glenrock, WY
Elevation: 5064 ft
Nearby Weather Stations

Elev 5064 ft 42.84 °N, 105.86 °W | Updated 46 days ago

Clear
Clear
24 °F
Feels Like 16 °F
N
8
Wind Variable Wind from WSW
Gusts 11 mph

Today
High -- | Low -- °F
--% Chance of Precip.
Yesterday
High -- | Low -- °F
Precip. -- in
7:17 AM 5:16 PM
Waxing Gibbous, 97% visible
Pressure 30.25 in
Visibility 10.0 miles
Clouds Clear
Windchill 16 °F
Dew Point 15 °F
Humidity 66%
Rainfall -999.00 in
Snow Depth Not available.
UV 0 out of 12
Pollen .10 out of 12
Air Quality Not available.
Flu Activity Not available.
METAR KDGW 020053Z AUTO 19008KT 10SM CLR M07/M11 A3007 RMK AO2 SLP244 T10671111

More Conditions Fewer Conditions

Pressure 30.25 in
Visibility 10.0 miles
Clouds Clear
Windchill 16 °F
Dew Point 15 °F
Humidity 66%
Rainfall -999.00 in
Snow Depth Not available.
UV 0 out of 12
Pollen .10 out of 12
Air Quality Not available.
Flu Activity Not available.
METAR KDGW 020053Z AUTO 19008KT 10SM CLR M07/M11 A3007 RMK AO2 SLP244 T10671111

More Conditions Fewer Conditions

10-Day Weather Forecast

Almanac

Astronomy

Feb. 01, 2015 Rise Set
Actual Time
Civil Twilight
Nautical Twilight
Astronomical Twilight
Moon
Length of Visible Light
Length of Day
Tomorrow will be .
, % of the Moon is Illuminated

Today's Extremes

State Highs State Lows

Community

WunderPhotos

Upload Photos

1,792,641 photos uploaded!

WunderBlogs® & News

Nearby

Air Quality

  Air Quality AQ Index Pollutant
Not available.

Snow Depth

Station Depth Elevation

Earthquake Activity

City Distance Mag. Time & Date
Minimum magnitude displayed is 2.5.

Coastal Water Temperatures

Place Temperature

Nearby Weather Stations